createdAt,value
2019-05-18T00:00:10.908Z,11.36
2019-05-18T00:02:39.575Z,11.35
2019-05-18T00:05:08.772Z,11.37
2019-05-18T00:07:37.430Z,11.44
2019-05-18T00:10:06.880Z,11.40
2019-05-18T00:12:35.553Z,11.44
2019-05-18T00:15:05.879Z,11.47
2019-05-18T00:17:34.587Z,11.48
2019-05-18T00:20:08.889Z,11.42
2019-05-18T00:22:37.589Z,11.44
2019-05-18T00:25:07.910Z,11.39
2019-05-18T00:27:36.641Z,11.44
2019-05-18T00:30:09.188Z,11.44
2019-05-18T00:32:37.982Z,11.36
2019-05-18T00:35:08.395Z,11.41
2019-05-18T00:37:37.114Z,11.44
2019-05-18T00:40:08.835Z,11.41
2019-05-18T00:42:37.496Z,11.45
2019-05-18T00:45:09.406Z,11.41
2019-05-18T00:47:41.974Z,11.47
2019-05-18T00:50:08.920Z,11.39
2019-05-18T00:52:37.772Z,11.45
2019-05-18T00:55:08.307Z,11.51
2019-05-18T00:57:36.977Z,11.49
2019-05-18T01:00:10.060Z,11.48
2019-05-18T01:02:38.812Z,11.55
2019-05-18T01:05:08.131Z,11.58
2019-05-18T01:07:37.001Z,11.67
2019-05-18T01:10:07.794Z,11.70
2019-05-18T01:12:36.487Z,11.73
2019-05-18T01:15:07.218Z,11.69
2019-05-18T01:17:35.902Z,11.73
2019-05-18T01:20:08.341Z,11.70
2019-05-18T01:22:37.009Z,11.67
2019-05-18T01:25:06.247Z,11.67
2019-05-18T01:27:34.991Z,11.80
2019-05-18T01:30:05.527Z,11.76
2019-05-18T01:32:34.270Z,11.78
2019-05-18T01:35:03.124Z,11.84
2019-05-18T01:37:31.847Z,11.87
2019-05-18T01:40:00.599Z,11.86
2019-05-18T01:42:29.364Z,11.85
2019-05-18T01:44:58.108Z,11.95
2019-05-18T01:47:26.817Z,11.93
2019-05-18T01:49:55.684Z,11.91
2019-05-18T01:52:24.345Z,11.94
2019-05-18T01:54:53.045Z,11.96
2019-05-18T01:57:21.739Z,11.89
2019-05-18T01:59:50.402Z,11.86
2019-05-18T02:02:19.182Z,11.81
2019-05-18T02:04:47.993Z,11.90
2019-05-18T02:07:16.649Z,11.84
2019-05-18T02:09:45.306Z,11.85
2019-05-18T02:12:14.095Z,11.86
2019-05-18T02:14:42.814Z,11.87
2019-05-18T02:17:11.553Z,11.76
2019-05-18T02:19:40.276Z,11.68
2019-05-18T02:22:08.961Z,11.63
2019-05-18T02:24:37.648Z,11.61
2019-05-18T02:27:06.369Z,11.59
2019-05-18T02:29:35.050Z,11.54
2019-05-18T02:32:03.801Z,11.54
2019-05-18T02:34:32.595Z,11.55
2019-05-18T02:37:01.345Z,11.56
2019-05-18T02:39:30.418Z,11.55
2019-05-18T02:41:59.267Z,11.53
2019-05-18T02:44:27.973Z,11.48
2019-05-18T02:46:56.643Z,11.43
2019-05-18T02:49:25.344Z,11.40
2019-05-18T02:51:54.056Z,11.37
2019-05-18T02:54:22.738Z,11.33
2019-05-18T02:56:51.455Z,11.29
2019-05-18T02:59:20.141Z,11.26
2019-05-18T03:01:48.813Z,11.26
2019-05-18T03:04:17.525Z,11.23
2019-05-18T03:06:46.686Z,11.22
2019-05-18T03:09:15.382Z,11.17
2019-05-18T03:11:44.121Z,11.11
2019-05-18T03:14:12.843Z,11.13
2019-05-18T03:16:41.575Z,11.11
2019-05-18T03:19:10.303Z,11.11
2019-05-18T03:21:39.057Z,11.11
2019-05-18T03:24:07.795Z,11.15
2019-05-18T03:26:37.907Z,11.16
2019-05-18T03:29:06.560Z,11.17
2019-05-18T03:31:35.229Z,11.19
2019-05-18T03:34:04.003Z,11.19
2019-05-18T03:36:32.665Z,11.25
2019-05-18T03:39:01.352Z,11.22
2019-05-18T03:41:30.089Z,11.25
2019-05-18T03:43:58.750Z,11.31
2019-05-18T03:46:27.417Z,11.32
2019-05-18T03:48:56.137Z,11.37
2019-05-18T03:51:24.809Z,11.42
2019-05-18T03:53:53.572Z,11.48
2019-05-18T03:56:22.236Z,11.49
2019-05-18T03:58:51.020Z,11.51
2019-05-18T04:01:19.705Z,11.55
2019-05-18T04:03:48.386Z,11.62
2019-05-18T04:06:17.175Z,11.66
2019-05-18T04:08:45.904Z,11.71
2019-05-18T04:11:14.681Z,11.71
2019-05-18T04:13:43.366Z,11.76
2019-05-18T04:16:12.069Z,11.81
2019-05-18T04:18:40.845Z,11.82
2019-05-18T04:21:10.702Z,11.87
2019-05-18T04:23:39.377Z,11.87
2019-05-18T04:26:08.139Z,11.85
2019-05-18T04:28:36.883Z,11.94
2019-05-18T04:31:05.683Z,12.00
2019-05-18T04:33:34.492Z,11.99
2019-05-18T04:36:03.163Z,12.02
2019-05-18T04:38:31.889Z,12.04
2019-05-18T04:41:00.565Z,12.07
2019-05-18T04:43:29.349Z,12.10
2019-05-18T04:45:58.040Z,12.23
2019-05-18T04:48:26.740Z,12.29
2019-05-18T04:50:56.906Z,12.43
2019-05-18T04:53:25.634Z,12.49
2019-05-18T04:55:54.369Z,12.52
2019-05-18T04:58:23.054Z,12.58
2019-05-18T05:00:51.776Z,12.57
2019-05-18T05:03:20.466Z,12.58
2019-05-18T05:05:49.160Z,12.65
2019-05-18T05:08:17.856Z,12.69
2019-05-18T05:10:52.467Z,12.72
2019-05-18T05:13:21.137Z,12.81
2019-05-18T05:15:49.830Z,12.89
2019-05-18T05:18:18.510Z,12.90
2019-05-18T05:20:47.228Z,12.92
2019-05-18T05:23:15.974Z,12.98
2019-05-18T05:25:44.680Z,13.07
2019-05-18T05:28:13.346Z,13.13
2019-05-18T05:30:42.265Z,13.17
2019-05-18T05:33:10.942Z,13.20
2019-05-18T05:35:39.646Z,13.29
2019-05-18T05:38:08.320Z,13.34
2019-05-18T05:40:53.527Z,13.33
2019-05-18T05:43:21.409Z,13.47
2019-05-18T05:45:50.136Z,13.53
2019-05-18T05:48:18.827Z,13.66
2019-05-18T05:50:47.501Z,13.78
2019-05-18T05:53:16.462Z,13.87
2019-05-18T05:55:45.193Z,13.99
2019-05-18T05:58:13.930Z,14.09
2019-05-18T06:00:42.645Z,14.13
2019-05-18T06:03:11.406Z,14.13
2019-05-18T06:05:40.107Z,14.24
2019-05-18T06:08:08.891Z,14.30
2019-05-18T06:10:37.566Z,14.40
2019-05-18T06:13:06.318Z,14.41
2019-05-18T06:15:37.770Z,14.55
2019-05-18T06:18:06.466Z,14.62
2019-05-18T06:20:49.016Z,14.68
2019-05-18T06:23:05.794Z,14.69
2019-05-18T06:25:34.674Z,14.86
2019-05-18T06:28:03.448Z,14.98
2019-05-18T06:30:32.143Z,15.10
2019-05-18T06:33:00.825Z,15.29
2019-05-18T06:35:29.543Z,15.62
2019-05-18T06:37:58.226Z,15.68
2019-05-18T06:40:26.927Z,15.93
2019-05-18T06:42:55.603Z,16.17
2019-05-18T06:45:24.366Z,16.21
2019-05-18T06:47:53.044Z,16.27
2019-05-18T06:50:27.301Z,16.30
2019-05-18T06:52:56.174Z,16.19
2019-05-18T06:55:26.729Z,16.37
2019-05-18T06:57:57.665Z,16.54
2019-05-18T07:00:26.416Z,16.54
2019-05-18T07:02:55.465Z,16.58
2019-05-18T07:05:24.243Z,16.84
2019-05-18T07:07:52.932Z,16.98
2019-05-18T07:10:21.755Z,17.25
2019-05-18T07:12:50.499Z,17.80
2019-05-18T07:15:19.571Z,18.43
2019-05-18T07:17:48.387Z,19.32
2019-05-18T07:20:18.556Z,19.82
2019-05-18T07:22:47.271Z,20.68
2019-05-18T07:25:16.545Z,20.95
2019-05-18T07:27:45.213Z,21.80
2019-05-18T07:30:14.594Z,22.47
2019-05-18T07:32:43.751Z,22.89
2019-05-18T07:35:12.994Z,23.65
2019-05-18T07:37:41.675Z,24.19
2019-05-18T07:40:11.609Z,24.88
2019-05-18T07:42:40.367Z,25.05
2019-05-18T07:45:09.537Z,25.55
2019-05-18T07:47:38.209Z,25.92
2019-05-18T07:50:07.451Z,26.14
2019-05-18T07:52:36.122Z,26.52
2019-05-18T07:55:06.256Z,26.71
2019-05-18T07:57:34.938Z,27.06
2019-05-18T08:00:04.248Z,27.23
2019-05-18T08:02:33.007Z,27.54
2019-05-18T08:05:01.823Z,28.19
2019-05-18T08:07:30.592Z,28.36
2019-05-18T08:09:59.401Z,28.07
2019-05-18T08:12:28.072Z,28.46
2019-05-18T08:14:56.778Z,28.63
2019-05-18T08:17:25.540Z,29.10
2019-05-18T08:19:54.311Z,29.32
2019-05-18T08:22:22.986Z,28.89
2019-05-18T08:24:51.762Z,28.90
2019-05-18T08:27:20.490Z,29.29
2019-05-18T08:29:49.552Z,29.76
2019-05-18T08:32:18.237Z,29.93
2019-05-18T08:34:47.061Z,29.47
2019-05-18T08:37:15.741Z,29.32
2019-05-18T08:39:44.443Z,29.79
2019-05-18T08:42:13.205Z,30.65
2019-05-18T08:44:42.042Z,30.71
2019-05-18T08:47:10.724Z,30.18
2019-05-18T08:49:39.519Z,30.57
2019-05-18T08:52:08.891Z,30.84
2019-05-18T08:54:37.630Z,31.11
2019-05-18T08:57:06.385Z,31.27
2019-05-18T08:59:35.083Z,31.39
2019-05-18T09:02:03.756Z,29.95
2019-05-18T09:04:33.390Z,30.61
2019-05-18T09:07:02.101Z,30.79
2019-05-18T09:09:30.843Z,29.42
2019-05-18T09:11:59.595Z,28.37
2019-05-18T09:14:28.323Z,28.12
2019-05-18T09:16:57.010Z,28.49
2019-05-18T09:19:25.792Z,29.61
2019-05-18T09:21:54.538Z,29.64
2019-05-18T09:24:23.218Z,29.40
2019-05-18T09:26:52.009Z,29.64
2019-05-18T09:29:20.795Z,29.47
2019-05-18T09:31:49.548Z,30.34
2019-05-18T09:34:18.280Z,30.58
2019-05-18T09:36:46.987Z,31.00
2019-05-18T09:39:15.748Z,30.48
2019-05-18T09:41:44.532Z,30.18
2019-05-18T09:44:13.226Z,30.32
2019-05-18T09:46:41.906Z,30.93
2019-05-18T09:49:11.275Z,31.44
2019-05-18T09:51:40.042Z,31.05
2019-05-18T09:54:08.790Z,30.71
2019-05-18T09:56:37.509Z,30.82
2019-05-18T09:59:06.195Z,30.54
2019-05-18T10:01:35.417Z,29.67
2019-05-18T10:04:04.377Z,28.48
2019-05-18T10:06:33.071Z,27.35
2019-05-18T10:09:01.738Z,27.27
2019-05-18T10:11:37.942Z,27.65
2019-05-18T10:14:01.031Z,26.94
2019-05-18T10:16:29.740Z,26.37
2019-05-18T10:18:58.487Z,26.72
2019-05-18T10:21:27.267Z,27.38
2019-05-18T10:23:56.037Z,27.94
2019-05-18T10:26:26.663Z,26.95
2019-05-18T10:28:55.418Z,26.36
2019-05-18T10:31:24.320Z,26.88
2019-05-18T10:33:53.057Z,27.52
2019-05-18T10:36:21.777Z,27.03
2019-05-18T10:38:50.450Z,27.82
2019-05-18T10:41:19.245Z,28.80
2019-05-18T10:43:47.924Z,28.70
2019-05-18T10:46:16.637Z,28.26
2019-05-18T10:48:45.386Z,27.35
2019-05-18T10:51:14.085Z,26.74
2019-05-18T10:53:42.781Z,25.70
2019-05-18T10:56:11.481Z,26.15
2019-05-18T10:58:40.239Z,26.28
2019-05-18T11:01:09.012Z,26.99
2019-05-18T11:03:37.757Z,28.04
2019-05-18T11:06:06.531Z,27.73
2019-05-18T11:08:38.280Z,26.73
2019-05-18T11:11:05.917Z,26.49
2019-05-18T11:13:34.676Z,26.08
2019-05-18T11:16:03.466Z,26.41
2019-05-18T11:18:32.134Z,26.73
2019-05-18T11:21:00.907Z,26.12
2019-05-18T11:23:42.847Z,26.01
2019-05-18T11:26:00.096Z,25.80
2019-05-18T11:28:28.752Z,25.46
2019-05-18T11:30:58.816Z,25.67
2019-05-18T11:33:27.573Z,26.09
2019-05-18T11:35:56.259Z,26.33
2019-05-18T11:38:24.969Z,26.82
2019-05-18T11:40:53.703Z,27.10
2019-05-18T11:43:22.414Z,27.52
2019-05-18T11:45:51.112Z,28.43
2019-05-18T11:48:19.827Z,28.38
2019-05-18T11:50:48.626Z,27.62
2019-05-18T11:53:17.391Z,28.01
2019-05-18T11:55:47.689Z,28.13
2019-05-18T11:58:16.465Z,29.01
2019-05-18T12:00:45.215Z,29.54
2019-05-18T12:03:14.008Z,29.02
2019-05-18T12:05:42.755Z,29.52
2019-05-18T12:08:11.468Z,29.30
2019-05-18T12:10:40.154Z,28.12
2019-05-18T12:13:10.664Z,28.03
2019-05-18T12:15:39.341Z,27.73
2019-05-18T12:18:08.047Z,28.07
2019-05-18T12:20:36.710Z,28.62
2019-05-18T12:23:08.238Z,29.37
2019-05-18T12:25:36.070Z,29.77
2019-05-18T12:28:04.809Z,30.01
2019-05-18T12:30:33.647Z,28.92
2019-05-18T12:33:02.345Z,28.80
2019-05-18T12:35:31.111Z,28.50
2019-05-18T12:37:59.906Z,28.54
2019-05-18T12:40:28.579Z,27.99
2019-05-18T12:42:57.311Z,27.87
2019-05-18T12:45:26.035Z,28.27
2019-05-18T12:47:54.846Z,28.48
2019-05-18T12:50:24.214Z,28.99
2019-05-18T12:52:54.894Z,28.81
2019-05-18T12:55:23.784Z,28.53
2019-05-18T12:57:53.983Z,28.73
2019-05-18T13:00:23.358Z,28.47
2019-05-18T13:02:52.139Z,27.78
2019-05-18T13:05:21.054Z,27.29
2019-05-18T13:07:49.758Z,26.80
2019-05-18T13:10:19.538Z,26.37
2019-05-18T13:12:48.314Z,26.49
2019-05-18T13:15:17.291Z,26.77
2019-05-18T13:17:45.998Z,26.03
2019-05-18T13:20:15.410Z,26.14
2019-05-18T13:22:44.171Z,26.12
2019-05-18T13:25:13.441Z,25.86
2019-05-18T13:27:42.218Z,25.69
2019-05-18T13:30:13.297Z,25.31
2019-05-18T13:32:42.019Z,25.38
2019-05-18T13:35:12.907Z,26.02
2019-05-18T13:37:41.624Z,26.76
2019-05-18T13:40:11.133Z,27.41
2019-05-18T13:42:39.837Z,27.42
2019-05-18T13:45:10.435Z,27.75
2019-05-18T13:47:41.155Z,28.01
2019-05-18T13:50:10.057Z,27.68
2019-05-18T13:52:38.818Z,27.48
2019-05-18T13:55:08.012Z,26.93
2019-05-18T13:57:36.722Z,26.48
2019-05-18T14:00:07.529Z,26.98
2019-05-18T14:02:36.274Z,27.21
2019-05-18T14:05:05.660Z,27.23
2019-05-18T14:07:34.490Z,27.16
2019-05-18T14:10:03.407Z,27.39
2019-05-18T14:12:32.069Z,27.27
2019-05-18T14:15:00.775Z,27.67
2019-05-18T14:17:29.455Z,27.90
2019-05-18T14:20:01.208Z,27.44
2019-05-18T14:22:29.973Z,27.48
2019-05-18T14:24:58.711Z,27.51
2019-05-18T14:27:27.473Z,27.45
2019-05-18T14:29:56.241Z,27.16
2019-05-18T14:32:24.919Z,27.10
2019-05-18T14:35:01.763Z,26.69
2019-05-18T14:37:33.810Z,26.48
2019-05-18T14:40:02.662Z,26.82
2019-05-18T14:42:31.403Z,27.06
2019-05-18T14:45:01.887Z,27.07
2019-05-18T14:47:30.668Z,26.95
2019-05-18T14:49:59.375Z,26.77
2019-05-18T14:52:28.055Z,26.69
2019-05-18T14:54:57.537Z,26.74
2019-05-18T14:57:26.209Z,26.51
2019-05-18T14:59:55.158Z,26.05
2019-05-18T15:02:25.478Z,26.11
2019-05-18T15:04:57.652Z,26.14
2019-05-18T15:07:26.307Z,25.90
2019-05-18T15:09:55.009Z,25.99
2019-05-18T15:12:23.675Z,25.87
2019-05-18T15:14:52.460Z,25.79
2019-05-18T15:17:21.197Z,25.71
2019-05-18T15:19:50.025Z,25.68
2019-05-18T15:22:18.791Z,25.56
2019-05-18T15:24:47.587Z,25.41
2019-05-18T15:27:16.257Z,25.35
2019-05-18T15:29:44.947Z,25.24
2019-05-18T15:32:13.608Z,25.23
2019-05-18T15:34:42.387Z,25.02
2019-05-18T15:37:11.065Z,24.85
2019-05-18T15:39:39.783Z,24.96
2019-05-18T15:42:08.479Z,25.00
2019-05-18T15:44:37.188Z,25.11
2019-05-18T15:47:05.854Z,24.95
2019-05-18T15:49:34.851Z,24.99
2019-05-18T15:52:03.652Z,24.92
2019-05-18T15:54:32.451Z,24.77
2019-05-18T15:57:01.193Z,24.95
2019-05-18T15:59:29.967Z,24.75
2019-05-18T16:01:58.669Z,24.62
2019-05-18T16:04:27.441Z,24.49
2019-05-18T16:06:58.854Z,24.36
2019-05-18T16:09:29.293Z,24.18
2019-05-18T16:11:58.085Z,23.98
2019-05-18T16:14:27.092Z,23.93
2019-05-18T16:16:55.794Z,23.92
2019-05-18T16:19:24.706Z,23.81
2019-05-18T16:21:53.704Z,23.74
2019-05-18T16:24:22.426Z,23.54
2019-05-18T16:26:51.177Z,23.49
2019-05-18T16:29:19.916Z,23.34
2019-05-18T16:31:48.851Z,23.50
2019-05-18T16:34:17.541Z,23.57
2019-05-18T16:36:46.229Z,23.64
2019-05-18T16:39:14.924Z,23.59
2019-05-18T16:41:43.704Z,23.47
2019-05-18T16:44:12.377Z,23.56
2019-05-18T16:46:41.180Z,23.50
2019-05-18T16:49:09.931Z,23.41
2019-05-18T16:51:38.630Z,23.44
2019-05-18T16:54:07.453Z,23.64
2019-05-18T16:56:36.850Z,23.42
2019-05-18T16:59:05.571Z,23.49
2019-05-18T17:01:34.388Z,23.60
2019-05-18T17:04:03.110Z,23.70
2019-05-18T17:06:31.934Z,23.67
2019-05-18T17:09:00.682Z,23.50
2019-05-18T17:11:34.401Z,23.52
2019-05-18T17:14:03.352Z,23.56
2019-05-18T17:16:32.039Z,23.37
2019-05-18T17:19:00.715Z,23.34
2019-05-18T17:21:29.439Z,23.32
2019-05-18T17:23:58.146Z,23.30
2019-05-18T17:26:28.305Z,22.99
2019-05-18T17:28:57.004Z,22.86
2019-05-18T17:31:25.807Z,22.80
2019-05-18T17:33:54.535Z,22.82
2019-05-18T17:36:24.280Z,22.70
2019-05-18T17:39:04.445Z,22.62
2019-05-18T17:41:33.346Z,22.62
2019-05-18T17:44:02.114Z,22.54
2019-05-18T17:46:30.819Z,22.34
2019-05-18T17:48:59.518Z,22.33
2019-05-18T17:51:28.284Z,22.13
2019-05-18T17:53:57.048Z,21.80
2019-05-18T17:56:25.778Z,21.66
2019-05-18T17:58:54.562Z,21.65
2019-05-18T18:01:23.433Z,21.63
2019-05-18T18:03:52.125Z,21.21
2019-05-18T18:06:20.947Z,21.10
2019-05-18T18:08:49.748Z,21.09
2019-05-18T18:11:18.571Z,20.97
2019-05-18T18:13:47.242Z,20.94
2019-05-18T18:16:15.948Z,20.61
2019-05-18T18:18:44.708Z,20.67
2019-05-18T18:21:13.483Z,20.70
2019-05-18T18:23:42.239Z,20.43
2019-05-18T18:26:11.024Z,20.26
2019-05-18T18:28:39.683Z,20.29
2019-05-18T18:31:08.463Z,20.23
2019-05-18T18:33:37.136Z,20.24
2019-05-18T18:36:05.907Z,20.13
2019-05-18T18:38:34.619Z,20.03
2019-05-18T18:41:03.444Z,20.02
2019-05-18T18:43:32.357Z,19.95
2019-05-18T18:46:01.044Z,19.86
2019-05-18T18:48:29.797Z,19.78
2019-05-18T18:51:01.175Z,19.63
2019-05-18T18:53:29.934Z,19.52
2019-05-18T18:55:58.734Z,19.51
2019-05-18T18:58:27.505Z,19.52
2019-05-18T19:00:56.172Z,19.50
2019-05-18T19:03:24.944Z,19.41
2019-05-18T19:05:53.640Z,19.35
2019-05-18T19:08:22.426Z,19.31
2019-05-18T19:10:51.169Z,19.36
2019-05-18T19:13:22.903Z,19.26
2019-05-18T19:15:51.677Z,19.20
2019-05-18T19:18:20.459Z,19.15
2019-05-18T19:20:49.223Z,19.16
2019-05-18T19:23:17.944Z,19.08
2019-05-18T19:25:46.697Z,18.91
2019-05-18T19:28:15.588Z,18.85
2019-05-18T19:30:44.364Z,18.75
2019-05-18T19:33:13.189Z,18.75
2019-05-18T19:35:41.836Z,18.50
2019-05-18T19:38:10.790Z,18.30
2019-05-18T19:40:39.468Z,18.28
2019-05-18T19:43:08.323Z,18.11
2019-05-18T19:45:37.078Z,18.15
2019-05-18T19:48:07.596Z,18.03
2019-05-18T19:50:36.394Z,17.90
2019-05-18T19:53:07.165Z,17.83
2019-05-18T19:55:35.927Z,17.64
2019-05-18T19:58:08.960Z,17.64
2019-05-18T20:00:35.102Z,17.62
2019-05-18T20:03:03.875Z,17.49
2019-05-18T20:05:32.591Z,17.47
2019-05-18T20:08:04.153Z,17.40
2019-05-18T20:10:32.967Z,17.39
2019-05-18T20:13:01.681Z,17.30
2019-05-18T20:15:30.348Z,17.15
2019-05-18T20:17:59.081Z,16.98
2019-05-18T20:20:30.618Z,16.99
2019-05-18T20:22:59.411Z,16.84
2019-05-18T20:25:28.078Z,16.88
2019-05-18T20:27:56.870Z,16.79
2019-05-18T20:30:25.671Z,16.75
2019-05-18T20:32:54.428Z,16.48
2019-05-18T20:35:26.150Z,16.56
2019-05-18T20:37:54.963Z,16.59
2019-05-18T20:40:23.649Z,16.49
2019-05-18T20:42:52.462Z,16.61
2019-05-18T20:45:21.532Z,16.54
2019-05-18T20:47:50.449Z,16.44
2019-05-18T20:50:19.290Z,16.27
2019-05-18T20:52:48.022Z,16.27
2019-05-18T20:55:16.914Z,16.30
2019-05-18T20:57:45.631Z,16.27
2019-05-18T21:00:15.780Z,16.25
2019-05-18T21:02:44.519Z,16.12
2019-05-18T21:05:13.435Z,16.11
2019-05-18T21:07:42.225Z,15.98
2019-05-18T21:10:11.395Z,15.88
2019-05-18T21:12:40.150Z,15.94
2019-05-18T21:15:11.127Z,16.01
2019-05-18T21:17:39.793Z,15.97
2019-05-18T21:20:09.118Z,15.84
2019-05-18T21:22:37.988Z,15.79
2019-05-18T21:25:07.379Z,15.82
2019-05-18T21:27:36.220Z,15.86
2019-05-18T21:30:05.985Z,15.79
2019-05-18T21:32:34.753Z,15.64
2019-05-18T21:35:04.122Z,15.65
2019-05-18T21:37:34.547Z,15.54
2019-05-18T21:40:03.370Z,15.51
2019-05-18T21:42:33.813Z,15.41
2019-05-18T21:45:02.693Z,15.37
2019-05-18T21:47:31.663Z,15.32
2019-05-18T21:50:00.415Z,15.21
2019-05-18T21:52:29.183Z,15.18
2019-05-18T21:54:57.905Z,15.16
2019-05-18T21:57:26.598Z,14.98
2019-05-18T21:59:55.780Z,14.97
2019-05-18T22:02:25.927Z,14.85
2019-05-18T22:04:54.727Z,14.94
2019-05-18T22:07:23.489Z,14.95
2019-05-18T22:09:53.770Z,15.00
2019-05-18T22:12:22.755Z,14.89
2019-05-18T22:14:51.435Z,14.90
2019-05-18T22:17:20.295Z,14.89
2019-05-18T22:19:49.020Z,14.89
2019-05-18T22:22:17.822Z,14.83
2019-05-18T22:24:46.549Z,14.84
2019-05-18T22:27:15.301Z,14.87
2019-05-18T22:29:44.165Z,14.80
2019-05-18T22:32:12.911Z,14.88
2019-05-18T22:34:41.623Z,14.81
2019-05-18T22:37:10.374Z,14.67
2019-05-18T22:39:39.093Z,14.60
2019-05-18T22:42:08.887Z,14.56
2019-05-18T22:44:37.598Z,14.53
2019-05-18T22:47:06.290Z,14.54
2019-05-18T22:49:35.071Z,14.41
2019-05-18T22:52:03.762Z,14.43
2019-05-18T22:54:32.542Z,14.46
2019-05-18T22:57:01.305Z,14.44
2019-05-18T22:59:30.025Z,14.34
2019-05-18T23:02:00.153Z,14.25
2019-05-18T23:04:28.854Z,14.29
2019-05-18T23:06:57.595Z,14.26
2019-05-18T23:09:26.325Z,14.29
2019-05-18T23:11:55.075Z,14.30
2019-05-18T23:14:23.813Z,14.31
2019-05-18T23:16:52.545Z,14.16
2019-05-18T23:19:21.280Z,14.02
2019-05-18T23:21:50.030Z,14.09
2019-05-18T23:24:18.742Z,14.12
2019-05-18T23:26:47.439Z,14.13
2019-05-18T23:29:16.147Z,14.04
2019-05-18T23:31:44.839Z,13.87
2019-05-18T23:34:15.100Z,13.85
2019-05-18T23:36:43.798Z,13.84
2019-05-18T23:39:12.533Z,13.80
2019-05-18T23:41:41.225Z,13.81
2019-05-18T23:44:09.898Z,13.78
2019-05-18T23:46:38.594Z,13.72
2019-05-18T23:49:10.988Z,13.62
2019-05-18T23:51:38.158Z,13.46
2019-05-18T23:54:06.889Z,13.40
2019-05-18T23:56:35.666Z,13.38
2019-05-18T23:59:05.249Z,13.38
